Cairo, IL

1:42 PM CDT on July 02, 2015 (GMT -0500)
South Adkins Dixon Road | | Change Station
CLOSE
Current Station
Personal Weather Station
Location: Wickliffe, KY
Elevation: 443 ft
Nearby Weather Stations

Elev 443 ft 37.01 °N, 89.03 °W | Updated 2 seconds ago

Overcast
Overcast
82.9 °F
Feels Like 91 °F
N
7.0
Wind Variable Wind from West
Gusts 7.0 mph

Today
High -- | Low -- °F
--% Chance of Precip.
Yesterday
High -- | Low -- °F
Precip. -- in
5:41 AM 8:20 PM
Waxing Gibbous, 99% visible
Pressure 29.83 in
Visibility 10.0 miles
Clouds Few 4900 ft
Overcast 6000 ft
Heat Index 91 °F
Dew Point 76 °F
Humidity 80%
Rainfall 0.00 in
Snow Depth Not available.
UV 4 out of 12
Pollen .60 out of 12
Air Quality Not available.
Flu Activity Not available.
METAR KPAH 021753Z 26007KT 10SM FEW049 OVC060 28/22 A2984 RMK AO2 LTG DSNT S SLP100 T02830222 10289 20211 58005

More Conditions Fewer Conditions

Pressure 29.83 in
Visibility 10.0 miles
Clouds Few 4900 ft
Overcast 6000 ft
Heat Index 91 °F
Dew Point 76 °F
Humidity 80%
Rainfall 0.00 in
Snow Depth Not available.
UV 4 out of 12
Pollen .60 out of 12
Air Quality Not available.
Flu Activity Not available.
METAR KPAH 021753Z 26007KT 10SM FEW049 OVC060 28/22 A2984 RMK AO2 LTG DSNT S SLP100 T02830222 10289 20211 58005

More Conditions Fewer Conditions

10-Day Weather Forecast

×

Almanac

Astronomy

Jul. 02, 2015 Rise Set
Actual Time
Civil Twilight
Nautical Twilight
Astronomical Twilight
Moon
Length of Visible Light
Length of Day
Tomorrow will be .
, % of the Moon is Illuminated

Today's Extremes

State Highs State Lows

Community

WunderPhotos

Upload Photos

1,834,516 photos uploaded!

WunderBlogs® & News

Nearby

Air Quality

  Air Quality AQ Index Pollutant
Not available.

Snow Depth

Station Depth Elevation

Earthquake Activity

City Distance Mag. Time & Date
Minimum magnitude displayed is 2.5.

Coastal Water Temperatures

Place Temperature

Stations

Nearby Weather Stations

Station Location Temp. Windchill Dew Point Humidity Wind Precip. Elev Updated Type